createdAt,value
2023-04-18T00:00:17.611Z,16.75
2023-04-18T00:02:51.619Z,16.88
2023-04-18T00:05:23.674Z,15.60
2023-04-18T00:07:52.041Z,14.57
2023-04-18T00:10:20.706Z,17.85
2023-04-18T00:12:49.002Z,15.18
2023-04-18T00:15:16.231Z,15.88
2023-04-18T00:17:43.543Z,14.90
2023-04-18T00:20:12.588Z,17.48
2023-04-18T00:22:46.716Z,15.82
2023-04-18T00:25:14.967Z,17.10
2023-04-18T00:27:42.554Z,15.48
2023-04-18T00:30:10.761Z,16.27
2023-04-18T00:32:39.077Z,14.82
2023-04-18T00:35:07.617Z,14.65
2023-04-18T00:37:35.853Z,15.15
2023-04-18T00:40:05.526Z,17.08
2023-04-18T00:42:34.147Z,13.37
2023-04-18T00:45:01.676Z,16.67
2023-04-18T00:47:31.340Z,14.48
2023-04-18T00:49:59.502Z,13.75
2023-04-18T00:52:27.663Z,14.77
2023-04-18T00:54:55.740Z,15.25
2023-04-18T00:57:23.393Z,15.70
2023-04-18T00:59:52.028Z,15.05
2023-04-18T01:02:22.827Z,15.43
2023-04-18T01:04:50.768Z,15.57
2023-04-18T01:07:18.460Z,16.50
2023-04-18T01:09:46.320Z,14.48
2023-04-18T01:12:13.570Z,14.43
2023-04-18T01:14:44.084Z,15.13
2023-04-18T01:17:13.259Z,15.90
2023-04-18T01:19:41.034Z,13.75
2023-04-18T01:22:10.459Z,15.52
2023-04-18T01:24:38.100Z,15.65
2023-04-18T01:27:05.855Z,13.45
2023-04-18T01:29:34.197Z,16.55
2023-04-18T01:32:02.624Z,15.20
2023-04-18T01:34:30.205Z,14.13
2023-04-18T01:36:57.590Z,14.07
2023-04-18T01:39:24.822Z,14.43
2023-04-18T01:41:52.878Z,16.92
2023-04-18T01:44:20.241Z,15.43
2023-04-18T01:46:47.858Z,13.40
2023-04-18T01:49:16.472Z,15.50
2023-04-18T01:51:43.943Z,14.85
2023-04-18T01:54:11.156Z,13.73
2023-04-18T01:56:38.546Z,13.98
2023-04-18T01:59:06.323Z,14.90
2023-04-18T02:01:33.971Z,13.82
2023-04-18T02:04:01.425Z,14.02
2023-04-18T02:06:28.714Z,15.50
2023-04-18T02:08:56.074Z,15.05
2023-04-18T02:11:25.608Z,14.65
2023-04-18T02:13:52.904Z,13.38
2023-04-18T02:16:24.103Z,14.23
2023-04-18T02:18:52.444Z,14.55
2023-04-18T02:21:22.076Z,15.23
2023-04-18T02:23:57.026Z,15.38
2023-04-18T02:26:24.620Z,12.40
2023-04-18T02:28:51.909Z,14.77
2023-04-18T02:31:19.214Z,14.27
2023-04-18T02:33:48.046Z,13.48
2023-04-18T02:36:15.594Z,13.35
2023-04-18T02:38:43.260Z,15.38
2023-04-18T02:41:17.521Z,14.00
2023-04-18T02:43:45.521Z,14.43
2023-04-18T02:46:15.120Z,12.85
2023-04-18T02:48:45.369Z,14.40
2023-04-18T02:51:13.720Z,14.02
2023-04-18T02:53:40.996Z,14.38
2023-04-18T02:56:08.414Z,14.20
2023-04-18T02:58:54.373Z,14.93
2023-04-18T03:01:40.433Z,15.38
2023-04-18T03:04:15.180Z,12.85
2023-04-18T03:07:11.025Z,13.45
2023-04-18T03:09:39.888Z,13.60
2023-04-18T03:12:16.908Z,13.98
2023-04-18T03:14:44.503Z,12.18
2023-04-18T03:17:13.805Z,14.80
2023-04-18T03:19:45.432Z,12.82
2023-04-18T03:22:15.896Z,13.40
2023-04-18T03:24:51.271Z,14.77
2023-04-18T03:27:19.862Z,14.23
2023-04-18T03:29:48.323Z,14.32
2023-04-18T03:32:17.346Z,15.00
2023-04-18T03:34:45.088Z,14.75
2023-04-18T03:37:12.914Z,12.82
2023-04-18T03:39:45.997Z,14.27
2023-04-18T03:42:13.955Z,13.98
2023-04-18T03:44:42.573Z,14.48
2023-04-18T03:47:10.305Z,14.30
2023-04-18T03:49:41.585Z,13.32
2023-04-18T03:52:09.182Z,14.30
2023-04-18T03:54:36.349Z,14.35
2023-04-18T03:57:04.731Z,14.98
2023-04-18T03:59:33.421Z,15.95
2023-04-18T04:02:01.084Z,13.70
2023-04-18T04:04:28.654Z,14.60
2023-04-18T04:06:58.094Z,13.63
2023-04-18T04:09:25.917Z,14.15
2023-04-18T04:11:53.299Z,15.18
2023-04-18T04:14:21.534Z,14.13
2023-04-18T04:16:49.302Z,13.32
2023-04-18T04:19:17.852Z,13.82
2023-04-18T04:21:54.341Z,16.35
2023-04-18T04:24:23.048Z,13.15
2023-04-18T04:26:51.888Z,14.68
2023-04-18T04:29:23.773Z,15.30
2023-04-18T04:31:52.749Z,15.10
2023-04-18T04:34:29.649Z,17.02
2023-04-18T04:36:57.628Z,13.38
2023-04-18T04:39:27.224Z,15.25
2023-04-18T04:42:13.466Z,14.98
2023-04-18T04:44:53.573Z,14.80
2023-04-18T04:47:22.356Z,15.98
2023-04-18T04:49:49.562Z,15.55
2023-04-18T04:52:16.752Z,13.52
2023-04-18T04:54:45.781Z,15.90
2023-04-18T04:57:15.535Z,16.15
2023-04-18T04:59:42.914Z,13.75
2023-04-18T05:02:11.641Z,15.30
2023-04-18T05:04:39.518Z,15.00
2023-04-18T05:07:07.287Z,14.45
2023-04-18T05:09:34.810Z,16.95
2023-04-18T05:12:01.957Z,15.85
2023-04-18T05:14:29.211Z,14.70
2023-04-18T05:16:56.629Z,14.80
2023-04-18T05:19:26.494Z,15.13
2023-04-18T05:21:53.694Z,15.00
2023-04-18T05:24:21.234Z,14.13
2023-04-18T05:26:49.032Z,16.15
2023-04-18T05:29:16.147Z,16.30
2023-04-18T05:31:43.339Z,14.75
2023-04-18T05:34:13.547Z,15.48
2023-04-18T05:36:41.328Z,13.68
2023-04-18T05:39:08.622Z,15.00
2023-04-18T05:41:35.788Z,14.30
2023-04-18T05:44:05.786Z,14.40
2023-04-18T05:46:33.791Z,15.90
2023-04-18T05:49:01.881Z,14.50
2023-04-18T05:51:29.224Z,14.75
2023-04-18T05:53:56.704Z,14.93
2023-04-18T05:56:24.067Z,15.73
2023-04-18T05:58:51.460Z,16.45
2023-04-18T06:01:18.972Z,15.95
2023-04-18T06:03:46.455Z,15.27
2023-04-18T06:06:14.328Z,15.77
2023-04-18T06:08:41.778Z,16.35
2023-04-18T06:11:09.087Z,15.52
2023-04-18T06:13:37.368Z,16.70
2023-04-18T06:16:05.925Z,15.95
2023-04-18T06:18:33.596Z,15.27
2023-04-18T06:21:00.860Z,15.25
2023-04-18T06:23:28.109Z,15.13
2023-04-18T06:25:58.024Z,16.88
2023-04-18T06:28:27.044Z,14.93
2023-04-18T06:30:54.196Z,14.82
2023-04-18T06:33:21.518Z,14.90
2023-04-18T06:35:49.079Z,15.43
2023-04-18T06:38:16.488Z,14.68
2023-04-18T06:40:43.710Z,16.20
2023-04-18T06:43:11.065Z,14.93
2023-04-18T06:45:40.534Z,15.75
2023-04-18T06:48:09.132Z,20.10
2023-04-18T06:50:36.588Z,17.17
2023-04-18T06:53:03.784Z,15.63
2023-04-18T06:55:31.404Z,15.77
2023-04-18T06:58:00.491Z,16.58
2023-04-18T07:00:27.944Z,14.30
2023-04-18T07:02:55.331Z,16.30
2023-04-18T07:05:23.453Z,14.68
2023-04-18T07:07:51.554Z,17.50
2023-04-18T07:10:18.962Z,15.70
2023-04-18T07:12:47.482Z,13.68
2023-04-18T07:15:14.849Z,15.23
2023-04-18T07:17:42.100Z,14.98
2023-04-18T07:20:12.355Z,15.00
2023-04-18T07:22:42.035Z,14.02
2023-04-18T07:25:15.784Z,13.95
2023-04-18T07:27:43.192Z,14.07
2023-04-18T07:30:11.369Z,15.07
2023-04-18T07:32:38.797Z,15.02
2023-04-18T07:35:06.806Z,13.98
2023-04-18T07:37:36.054Z,17.15
2023-04-18T07:40:04.778Z,17.67
2023-04-18T07:42:32.066Z,15.13
2023-04-18T07:44:59.613Z,16.77
2023-04-18T07:47:30.284Z,15.57
2023-04-18T07:49:58.525Z,14.77
2023-04-18T07:52:25.968Z,14.20
2023-04-18T07:54:53.260Z,15.25
2023-04-18T07:57:20.886Z,15.77
2023-04-18T07:59:48.256Z,14.85
2023-04-18T08:02:16.287Z,16.75
2023-04-18T08:04:43.836Z,16.05
2023-04-18T08:07:11.441Z,15.15
2023-04-18T08:09:38.976Z,14.02
2023-04-18T08:12:06.757Z,14.38
2023-04-18T08:14:34.476Z,14.30
2023-04-18T08:17:01.973Z,13.88
2023-04-18T08:19:30.476Z,14.63
2023-04-18T08:22:11.194Z,13.63
2023-04-18T08:24:39.605Z,12.70
2023-04-18T08:27:07.586Z,11.10
2023-04-18T08:29:34.841Z,11.80
2023-04-18T08:32:02.314Z,11.70
2023-04-18T08:34:34.021Z,13.80
2023-04-18T08:37:02.124Z,12.60
2023-04-18T08:39:31.121Z,13.13
2023-04-18T08:42:00.784Z,13.50
2023-04-18T08:44:29.703Z,12.43
2023-04-18T08:46:57.811Z,13.68
2023-04-18T08:49:25.788Z,15.05
2023-04-18T08:51:53.523Z,13.90
2023-04-18T08:54:22.538Z,14.75
2023-04-18T08:57:16.896Z,15.18
2023-04-18T08:59:48.258Z,13.27
2023-04-18T09:02:17.909Z,13.90
2023-04-18T09:04:52.637Z,13.77
2023-04-18T09:07:28.619Z,14.95
2023-04-18T09:09:58.183Z,13.93
2023-04-18T09:12:27.946Z,15.00
2023-04-18T09:15:16.882Z,15.63
2023-04-18T09:17:50.986Z,15.65
2023-04-18T09:20:41.446Z,17.00
2023-04-18T09:23:14.778Z,15.45
2023-04-18T09:25:45.015Z,15.93
2023-04-18T09:28:28.072Z,14.80
2023-04-18T09:31:15.398Z,15.02
2023-04-18T09:33:56.813Z,15.32
2023-04-18T09:36:27.713Z,16.63
2023-04-18T09:38:57.247Z,14.48
2023-04-18T09:41:24.866Z,14.38
2023-04-18T09:44:15.879Z,13.73
2023-04-18T09:46:47.419Z,13.52
2023-04-18T09:49:16.804Z,13.15
2023-04-18T09:51:46.142Z,13.95
2023-04-18T09:54:18.390Z,12.93
2023-04-18T09:56:50.775Z,13.23
2023-04-18T09:59:32.723Z,14.18
2023-04-18T10:02:03.745Z,13.82
2023-04-18T10:04:32.932Z,13.65
2023-04-18T10:07:01.994Z,12.07
2023-04-18T10:09:33.959Z,13.05
2023-04-18T10:12:02.676Z,13.15
2023-04-18T10:14:33.777Z,12.15
2023-04-18T10:17:01.797Z,11.60
2023-04-18T10:19:30.300Z,12.60
2023-04-18T10:22:01.478Z,10.48
2023-04-18T10:24:56.338Z,10.75
2023-04-18T10:27:49.158Z,10.23
2023-04-18T10:30:18.934Z,10.75
2023-04-18T10:32:46.944Z,10.50
2023-04-18T10:35:14.821Z,9.65
2023-04-18T10:37:52.463Z,10.30
2023-04-18T10:40:34.563Z,11.02
2023-04-18T10:43:02.511Z,11.25
2023-04-18T10:45:36.263Z,10.20
2023-04-18T10:48:30.213Z,9.80
2023-04-18T10:51:20.796Z,10.23
2023-04-18T10:54:00.346Z,10.52
2023-04-18T10:56:29.016Z,10.95
2023-04-18T10:59:03.511Z,11.05
2023-04-18T11:01:36.525Z,9.98
2023-04-18T11:04:13.971Z,11.10
2023-04-18T11:06:55.056Z,9.85
2023-04-18T11:09:22.615Z,9.15
2023-04-18T11:12:10.935Z,9.57
2023-04-18T11:14:51.925Z,9.55
2023-04-18T11:17:32.860Z,8.75
2023-04-18T11:20:15.607Z,8.25
2023-04-18T11:23:00.973Z,7.97
2023-04-18T11:25:36.457Z,8.45
2023-04-18T11:28:04.988Z,8.23
2023-04-18T11:30:42.667Z,9.20
2023-04-18T11:33:13.166Z,8.68
2023-04-18T11:35:46.639Z,8.77
2023-04-18T11:38:16.589Z,7.75
2023-04-18T11:40:51.025Z,8.30
2023-04-18T11:43:25.567Z,10.15
2023-04-18T11:46:03.420Z,7.20
2023-04-18T11:48:41.300Z,7.95
2023-04-18T11:51:35.587Z,9.10
2023-04-18T11:54:02.906Z,8.80
2023-04-18T11:56:33.997Z,8.00
2023-04-18T11:59:09.937Z,7.68
2023-04-18T12:01:37.851Z,9.68
2023-04-18T12:04:08.159Z,7.93
2023-04-18T12:06:53.981Z,8.65
2023-04-18T12:09:25.034Z,7.88
2023-04-18T12:12:03.976Z,8.50
2023-04-18T12:14:31.274Z,7.45
2023-04-18T12:16:58.562Z,8.45
2023-04-18T12:19:30.278Z,10.05
2023-04-18T12:22:05.287Z,8.07
2023-04-18T12:24:34.029Z,7.93
2023-04-18T12:27:02.077Z,9.02
2023-04-18T12:29:29.874Z,8.57
2023-04-18T12:32:03.484Z,7.32
2023-04-18T12:34:31.035Z,8.85
2023-04-18T12:36:58.495Z,7.22
2023-04-18T12:39:26.023Z,7.38
2023-04-18T12:41:53.318Z,7.45
2023-04-18T12:44:21.000Z,7.80
2023-04-18T12:46:48.478Z,9.27
2023-04-18T12:49:15.982Z,8.65
2023-04-18T12:51:43.671Z,9.13
2023-04-18T12:54:10.988Z,7.20
2023-04-18T12:56:38.368Z,7.13
2023-04-18T12:59:05.742Z,7.72
2023-04-18T13:01:33.286Z,7.07
2023-04-18T13:04:11.589Z,7.10
2023-04-18T13:06:40.445Z,6.72
2023-04-18T13:09:08.206Z,9.30
2023-04-18T13:11:35.485Z,6.30
2023-04-18T13:14:02.796Z,6.88
2023-04-18T13:16:30.841Z,6.90
2023-04-18T13:18:58.308Z,7.22
2023-04-18T13:21:25.989Z,7.35
2023-04-18T13:24:18.919Z,6.57
2023-04-18T13:26:47.205Z,6.43
2023-04-18T13:29:14.706Z,6.13
2023-04-18T13:31:42.436Z,6.05
2023-04-18T13:34:13.871Z,6.63
2023-04-18T13:36:41.523Z,7.97
2023-04-18T13:39:09.251Z,7.03
2023-04-18T13:41:36.889Z,6.57
2023-04-18T13:44:04.744Z,6.68
2023-04-18T13:46:32.502Z,5.88
2023-04-18T13:49:00.188Z,6.32
2023-04-18T13:51:29.960Z,5.70
2023-04-18T13:53:57.560Z,5.15
2023-04-18T13:56:25.430Z,5.35
2023-04-18T13:58:53.140Z,5.68
2023-04-18T14:01:21.115Z,5.85
2023-04-18T14:03:49.325Z,5.68
2023-04-18T14:06:17.609Z,5.50
2023-04-18T14:08:45.760Z,5.95
2023-04-18T14:11:13.396Z,5.32
2023-04-18T14:13:41.132Z,5.93
2023-04-18T14:16:09.250Z,7.07
2023-04-18T14:18:36.940Z,6.45
2023-04-18T14:21:05.570Z,5.57
2023-04-18T14:23:36.714Z,5.50
2023-04-18T14:26:05.691Z,5.30
2023-04-18T14:28:58.665Z,6.30
2023-04-18T14:31:28.146Z,8.82
2023-04-18T14:33:55.449Z,5.68
2023-04-18T14:36:23.084Z,6.43
2023-04-18T14:38:50.425Z,6.10
2023-04-18T14:41:17.919Z,6.90
2023-04-18T14:43:45.800Z,7.10
2023-04-18T14:46:16.655Z,6.72
2023-04-18T14:48:48.014Z,5.78
2023-04-18T14:51:16.929Z,5.63
2023-04-18T14:53:45.590Z,6.05
2023-04-18T14:56:13.665Z,6.78
2023-04-18T14:58:41.144Z,5.75
2023-04-18T15:01:08.885Z,6.32
2023-04-18T15:03:36.526Z,5.25
2023-04-18T15:06:04.918Z,6.32
2023-04-18T15:08:33.020Z,5.70
2023-04-18T15:11:01.483Z,6.15
2023-04-18T15:13:29.144Z,5.75
2023-04-18T15:15:57.765Z,6.03
2023-04-18T15:18:25.486Z,7.22
2023-04-18T15:20:53.928Z,5.20
2023-04-18T15:23:21.641Z,5.88
2023-04-18T15:25:49.634Z,4.75
2023-04-18T15:28:18.720Z,4.78
2023-04-18T15:30:46.413Z,6.38
2023-04-18T15:33:14.439Z,6.20
2023-04-18T15:35:41.763Z,4.97
2023-04-18T15:38:09.484Z,6.20
2023-04-18T15:40:37.925Z,4.55
2023-04-18T15:43:06.007Z,5.88
2023-04-18T15:45:33.981Z,5.90
2023-04-18T15:48:02.273Z,5.90
2023-04-18T15:50:31.482Z,5.82
2023-04-18T15:53:00.540Z,6.32
2023-04-18T15:55:28.040Z,6.03
2023-04-18T15:57:55.695Z,5.63
2023-04-18T16:00:23.817Z,5.47
2023-04-18T16:02:52.004Z,5.70
2023-04-18T16:05:23.690Z,5.95
2023-04-18T16:07:53.856Z,6.40
2023-04-18T16:10:21.930Z,5.32
2023-04-18T16:12:49.358Z,5.63
2023-04-18T16:15:16.843Z,5.93
2023-04-18T16:17:44.234Z,5.38
2023-04-18T16:20:11.847Z,6.22
2023-04-18T16:22:39.113Z,6.07
2023-04-18T16:25:08.157Z,5.25
2023-04-18T16:27:35.782Z,5.35
2023-04-18T16:30:04.334Z,7.03
2023-04-18T16:32:32.711Z,6.18
2023-04-18T16:35:00.320Z,7.30
2023-04-18T16:37:28.400Z,6.00
2023-04-18T16:39:56.068Z,7.38
2023-04-18T16:42:23.322Z,6.28
2023-04-18T16:44:50.667Z,8.30
2023-04-18T16:47:18.511Z,6.82
2023-04-18T16:49:51.521Z,7.00
2023-04-18T16:52:19.359Z,7.18
2023-04-18T16:54:46.641Z,7.30
2023-04-18T16:57:14.791Z,7.40
2023-04-18T16:59:42.233Z,7.53
2023-04-18T17:02:09.942Z,7.22
2023-04-18T17:04:37.942Z,6.90
2023-04-18T17:07:05.504Z,6.90
2023-04-18T17:09:33.078Z,6.95
2023-04-18T17:12:01.666Z,7.10
2023-04-18T17:14:28.982Z,9.80
2023-04-18T17:16:56.438Z,7.07
2023-04-18T17:19:26.379Z,6.68
2023-04-18T17:21:53.982Z,6.35
2023-04-18T17:24:22.750Z,7.30
2023-04-18T17:26:50.364Z,6.45
2023-04-18T17:29:18.503Z,7.00
2023-04-18T17:31:46.021Z,6.97
2023-04-18T17:34:13.626Z,7.55
2023-04-18T17:36:41.288Z,7.60
2023-04-18T17:39:09.626Z,6.22
2023-04-18T17:41:39.217Z,7.25
2023-04-18T17:44:08.238Z,6.82
2023-04-18T17:46:36.306Z,8.20
2023-04-18T17:49:34.342Z,7.18
2023-04-18T17:52:02.744Z,7.63
2023-04-18T17:54:30.680Z,7.18
2023-04-18T17:56:58.454Z,7.03
2023-04-18T17:59:26.436Z,7.85
2023-04-18T18:01:57.939Z,7.82
2023-04-18T18:04:29.409Z,6.40
2023-04-18T18:06:58.596Z,7.18
2023-04-18T18:09:26.872Z,6.55
2023-04-18T18:11:55.912Z,7.43
2023-04-18T18:14:23.724Z,6.88
2023-04-18T18:16:51.245Z,7.20
2023-04-18T18:19:20.590Z,7.07
2023-04-18T18:21:48.144Z,7.32
2023-04-18T18:24:19.044Z,6.97
2023-04-18T18:26:46.519Z,7.97
2023-04-18T18:29:14.171Z,7.10
2023-04-18T18:31:42.827Z,7.47
2023-04-18T18:34:14.044Z,7.22
2023-04-18T18:36:41.531Z,8.40
2023-04-18T18:39:09.039Z,7.85
2023-04-18T18:41:36.380Z,7.50
2023-04-18T18:44:03.625Z,8.23
2023-04-18T18:46:31.265Z,9.57
2023-04-18T18:48:58.623Z,8.80
2023-04-18T18:51:26.356Z,8.80
2023-04-18T18:53:53.643Z,8.35
2023-04-18T18:56:22.337Z,9.45
2023-04-18T18:58:50.270Z,8.00
2023-04-18T19:01:23.789Z,7.65
2023-04-18T19:03:51.639Z,8.00
2023-04-18T19:06:21.854Z,7.93
2023-04-18T19:08:49.559Z,8.05
2023-04-18T19:11:18.844Z,8.93
2023-04-18T19:13:46.766Z,8.68
2023-04-18T19:16:14.202Z,8.60
2023-04-18T19:18:46.815Z,9.40
2023-04-18T19:21:14.211Z,8.57
2023-04-18T19:23:42.347Z,9.13
2023-04-18T19:26:12.385Z,8.88
2023-04-18T19:28:55.850Z,9.02
2023-04-18T19:31:43.845Z,9.07
2023-04-18T19:34:14.287Z,10.63
2023-04-18T19:36:41.879Z,9.40
2023-04-18T19:39:09.772Z,9.57
2023-04-18T19:41:37.506Z,10.25
2023-04-18T19:44:07.866Z,9.20
2023-04-18T19:46:35.672Z,10.35
2023-04-18T19:49:06.733Z,9.02
2023-04-18T19:51:34.435Z,9.93
2023-04-18T19:54:02.340Z,8.73
2023-04-18T19:56:29.778Z,10.18
2023-04-18T19:58:58.112Z,8.52
2023-04-18T20:01:25.993Z,9.18
2023-04-18T20:04:08.193Z,8.38
2023-04-18T20:06:58.638Z,9.27
2023-04-18T20:09:26.180Z,8.98
2023-04-18T20:11:54.327Z,8.95
2023-04-18T20:14:21.810Z,10.52
2023-04-18T20:16:49.901Z,10.10
2023-04-18T20:19:19.713Z,8.80
2023-04-18T20:21:47.041Z,9.00
2023-04-18T20:24:15.620Z,9.85
2023-04-18T20:26:43.938Z,10.98
2023-04-18T20:29:11.252Z,9.55
2023-04-18T20:31:42.292Z,8.65
2023-04-18T20:34:13.988Z,9.35
2023-04-18T20:36:41.899Z,10.25
2023-04-18T20:39:09.860Z,10.30
2023-04-18T20:41:39.566Z,9.88
2023-04-18T20:44:13.049Z,10.90
2023-04-18T20:46:42.232Z,10.30
2023-04-18T20:49:13.640Z,9.25
2023-04-18T20:51:41.518Z,10.35
2023-04-18T20:54:09.005Z,11.20
2023-04-18T20:56:38.786Z,9.88
2023-04-18T20:59:06.041Z,11.02
2023-04-18T21:01:33.805Z,9.27
2023-04-18T21:04:02.618Z,9.57
2023-04-18T21:06:31.278Z,10.27
2023-04-18T21:08:58.903Z,9.82
2023-04-18T21:11:26.626Z,10.32
2023-04-18T21:13:54.090Z,9.57
2023-04-18T21:16:21.753Z,8.02
2023-04-18T21:18:49.376Z,10.48
2023-04-18T21:21:17.873Z,11.13
2023-04-18T21:23:46.379Z,9.82
2023-04-18T21:26:17.945Z,11.52
2023-04-18T21:29:04.341Z,9.52
2023-04-18T21:31:39.872Z,9.77
2023-04-18T21:34:14.170Z,11.32
2023-04-18T21:36:41.883Z,10.18
2023-04-18T21:39:09.086Z,9.90
2023-04-18T21:41:36.489Z,9.80
2023-04-18T21:44:04.160Z,10.38
2023-04-18T21:46:31.744Z,9.32
2023-04-18T21:48:59.511Z,9.90
2023-04-18T21:51:27.310Z,12.00
2023-04-18T21:53:54.928Z,10.98
2023-04-18T21:56:22.682Z,10.82
2023-04-18T21:58:50.521Z,11.57
2023-04-18T22:01:18.149Z,11.18
2023-04-18T22:03:46.270Z,9.52
2023-04-18T22:06:14.018Z,9.95
2023-04-18T22:08:42.064Z,9.90
2023-04-18T22:11:11.625Z,11.38
2023-04-18T22:13:38.957Z,11.60
2023-04-18T22:16:10.800Z,10.55
2023-04-18T22:18:42.148Z,10.20
2023-04-18T22:21:10.050Z,11.65
2023-04-18T22:23:37.674Z,9.32
2023-04-18T22:26:06.243Z,9.82
2023-04-18T22:28:33.999Z,8.88
2023-04-18T22:31:01.461Z,9.73
2023-04-18T22:33:28.951Z,11.35
2023-04-18T22:35:56.260Z,10.15
2023-04-18T22:38:26.053Z,10.43
2023-04-18T22:40:53.556Z,10.80
2023-04-18T22:43:23.593Z,10.45
2023-04-18T22:45:51.736Z,10.27
2023-04-18T22:48:19.497Z,10.43
2023-04-18T22:50:47.289Z,10.82
2023-04-18T22:53:16.491Z,10.77
2023-04-18T22:55:46.227Z,10.63
2023-04-18T22:58:14.236Z,11.25
2023-04-18T23:00:41.798Z,10.27
2023-04-18T23:03:09.599Z,10.73
2023-04-18T23:05:37.488Z,10.98
2023-04-18T23:08:08.801Z,10.90
2023-04-18T23:10:36.592Z,13.82
2023-04-18T23:13:04.192Z,10.40
2023-04-18T23:15:31.430Z,12.57
2023-04-18T23:17:58.827Z,12.73
2023-04-18T23:20:26.620Z,10.52
2023-04-18T23:22:56.065Z,12.02
2023-04-18T23:25:23.996Z,11.85
2023-04-18T23:27:52.361Z,12.27
2023-04-18T23:30:19.788Z,10.65
2023-04-18T23:32:47.070Z,11.27
2023-04-18T23:35:14.901Z,10.30
2023-04-18T23:37:42.694Z,10.57
2023-04-18T23:40:11.015Z,11.05
2023-04-18T23:42:38.716Z,13.98
2023-04-18T23:45:07.036Z,12.82
2023-04-18T23:47:35.491Z,12.52
2023-04-18T23:50:03.294Z,12.27
2023-04-18T23:52:30.709Z,12.68
2023-04-18T23:55:02.043Z,11.52
2023-04-18T23:57:29.607Z,13.80
2023-04-18T23:59:57.405Z,13.00
